createdAt,value
2023-08-28T00:01:05.811Z,99728.34
2023-08-28T00:03:34.308Z,99732.63
2023-08-28T00:06:02.958Z,99732.47
2023-08-28T00:08:31.256Z,99726.31
2023-08-28T00:10:59.617Z,99732.31
2023-08-28T00:13:27.912Z,99726.03
2023-08-28T00:15:57.810Z,99728.66
2023-08-28T00:18:26.243Z,99725.16
2023-08-28T00:20:54.766Z,99726.03
2023-08-28T00:23:23.377Z,99732.22
2023-08-28T00:25:51.665Z,99723.47
2023-08-28T00:28:19.961Z,99724.31
2023-08-28T00:30:48.725Z,99721.59
2023-08-28T00:33:19.485Z,99718.94
2023-08-28T00:35:47.980Z,99731.19
2023-08-28T00:38:16.424Z,99725.91
2023-08-28T00:40:45.516Z,99717.06
2023-08-28T00:43:13.828Z,99718.78
2023-08-28T00:45:45.343Z,99713.50
2023-08-28T00:48:16.884Z,99706.53
2023-08-28T00:50:47.273Z,99711.03
2023-08-28T00:53:16.070Z,99713.66
2023-08-28T00:55:46.397Z,99722.34
2023-08-28T00:58:15.330Z,99720.47
2023-08-28T01:00:43.861Z,99715.06
2023-08-28T01:03:12.390Z,99720.19
2023-08-28T01:05:49.075Z,99716.59
2023-08-28T01:08:26.347Z,99720.88
2023-08-28T01:10:59.917Z,99722.59
2023-08-28T01:13:33.063Z,99721.75
2023-08-28T01:16:01.731Z,99719.03
2023-08-28T01:18:30.497Z,99718.94
2023-08-28T01:21:00.445Z,99719.72
2023-08-28T01:23:34.015Z,99721.34
2023-08-28T01:26:03.816Z,99716.94
2023-08-28T01:28:32.579Z,99720.41
2023-08-28T01:31:01.045Z,99716.94
2023-08-28T01:33:29.468Z,99729.19
2023-08-28T01:36:08.047Z,99725.00
2023-08-28T01:38:40.586Z,99721.75
2023-08-28T01:41:12.578Z,99732.53
2023-08-28T01:43:48.804Z,99737.97
2023-08-28T01:46:18.391Z,99737.16
2023-08-28T01:48:52.307Z,99735.47
2023-08-28T01:51:21.076Z,99739.88
2023-08-28T01:53:50.234Z,99740.81
2023-08-28T01:56:22.339Z,99739.03
2023-08-28T01:58:52.945Z,99734.59
2023-08-28T02:01:22.080Z,99743.47
2023-08-28T02:03:50.438Z,99735.72
2023-08-28T02:06:19.102Z,99744.56
2023-08-28T02:08:48.469Z,99748.16
2023-08-28T02:11:17.064Z,99746.25
2023-08-28T02:13:48.626Z,99751.56
2023-08-28T02:16:18.402Z,99755.88
2023-08-28T02:18:46.892Z,99747.03
2023-08-28T02:21:15.255Z,99752.31
2023-08-28T02:23:43.625Z,99743.63
2023-08-28T02:26:11.914Z,99750.69
2023-08-28T02:28:40.634Z,99757.97
2023-08-28T02:31:10.452Z,99758.22
2023-08-28T02:33:38.885Z,99761.84
2023-08-28T02:36:07.404Z,99754.88
2023-08-28T02:38:35.988Z,99754.00
2023-08-28T02:41:06.213Z,99751.38
2023-08-28T02:43:34.681Z,99753.88
2023-08-28T02:46:04.042Z,99751.09
2023-08-28T02:48:34.039Z,99757.28
2023-08-28T02:51:02.576Z,99751.16
2023-08-28T02:53:31.004Z,99744.19
2023-08-28T02:56:23.725Z,99747.69
2023-08-28T02:58:52.629Z,99745.88
2023-08-28T03:01:21.513Z,99746.66
2023-08-28T03:03:51.559Z,99743.25
2023-08-28T03:06:20.233Z,99740.53
2023-08-28T03:08:48.715Z,99736.97
2023-08-28T03:11:18.003Z,99744.78
2023-08-28T03:13:46.458Z,99742.03
2023-08-28T03:16:14.993Z,99744.56
2023-08-28T03:18:43.535Z,99742.78
2023-08-28T03:21:13.488Z,99738.25
2023-08-28T03:23:41.949Z,99735.63
2023-08-28T03:26:10.541Z,99737.31
2023-08-28T03:28:39.271Z,99736.25
2023-08-28T03:31:07.636Z,99734.47
2023-08-28T03:33:36.757Z,99732.69
2023-08-28T03:36:05.848Z,99732.53
2023-08-28T03:38:38.205Z,99736.88
2023-08-28T03:41:09.910Z,99744.72
2023-08-28T03:43:38.458Z,99753.41
2023-08-28T03:46:06.996Z,99750.78
2023-08-28T03:48:36.048Z,99746.25
2023-08-28T03:51:04.441Z,99742.69
2023-08-28T03:53:32.825Z,99754.09
2023-08-28T03:56:02.675Z,99754.94
2023-08-28T03:58:31.120Z,99746.97
2023-08-28T04:00:59.466Z,99740.06
2023-08-28T04:03:27.974Z,99737.41
2023-08-28T04:05:56.352Z,99747.13
2023-08-28T04:08:24.709Z,99741.91
2023-08-28T04:10:53.716Z,99738.50
2023-08-28T04:13:23.805Z,99748.28
2023-08-28T04:15:52.378Z,99742.44
2023-08-28T04:18:21.076Z,99739.22
2023-08-28T04:20:50.353Z,99736.19
2023-08-28T04:23:19.314Z,99737.63
2023-08-28T04:25:47.735Z,99738.09
2023-08-28T04:28:17.367Z,99731.59
2023-08-28T04:30:47.782Z,99739.09
2023-08-28T04:33:16.619Z,99738.53
2023-08-28T04:35:44.949Z,99743.25
2023-08-28T04:38:13.483Z,99747.09
2023-08-28T04:40:43.979Z,99733.25
2023-08-28T04:43:13.898Z,99741.38
2023-08-28T04:45:42.357Z,99739.00
2023-08-28T04:48:12.180Z,99739.25
2023-08-28T04:50:40.658Z,99738.72
2023-08-28T04:53:08.967Z,99737.06
2023-08-28T04:55:40.712Z,99736.34
2023-08-28T04:58:09.128Z,99748.75
2023-08-28T05:00:37.489Z,99738.34
2023-08-28T05:03:08.008Z,99751.53
2023-08-28T05:05:38.267Z,99745.31
2023-08-28T05:08:07.941Z,99756.78
2023-08-28T05:10:36.391Z,99756.13
2023-08-28T05:13:05.620Z,99751.91
2023-08-28T05:15:36.440Z,99759.97
2023-08-28T05:18:06.869Z,99758.25
2023-08-28T05:20:35.289Z,99758.44
2023-08-28T05:23:05.960Z,99764.03
2023-08-28T05:25:34.955Z,99769.50
2023-08-28T05:28:03.498Z,99776.53
2023-08-28T05:30:32.013Z,99785.22
2023-08-28T05:33:01.811Z,99782.47
2023-08-28T05:35:30.880Z,99785.97
2023-08-28T05:37:59.280Z,99789.28
2023-08-28T05:40:29.967Z,99796.81
2023-08-28T05:42:59.138Z,99789.38
2023-08-28T05:45:28.473Z,99788.97
2023-08-28T05:47:57.545Z,99792.06
2023-08-28T05:50:26.069Z,99777.56
2023-08-28T05:52:54.479Z,99784.97
2023-08-28T05:55:22.933Z,99795.03
2023-08-28T05:57:52.941Z,99783.28
2023-08-28T06:00:21.538Z,99789.19
2023-08-28T06:02:50.507Z,99794.03
2023-08-28T06:05:20.041Z,99788.56
2023-08-28T06:07:49.453Z,99794.44
2023-08-28T06:10:20.978Z,99788.13
2023-08-28T06:12:49.656Z,99791.41
2023-08-28T06:15:20.066Z,99797.38
2023-08-28T06:17:49.302Z,99792.72
2023-08-28T06:20:17.873Z,99785.59
2023-08-28T06:22:46.525Z,99793.22
2023-08-28T06:25:15.292Z,99793.09
2023-08-28T06:27:44.390Z,99800.78
2023-08-28T06:30:13.882Z,99806.00
2023-08-28T06:32:43.774Z,99808.50
2023-08-28T06:35:12.331Z,99810.19
2023-08-28T06:37:40.724Z,99807.44
2023-08-28T06:40:10.813Z,99811.69
2023-08-28T06:42:39.704Z,99811.47
2023-08-28T06:45:11.078Z,99815.06
2023-08-28T06:47:39.760Z,99816.59
2023-08-28T06:50:10.465Z,99816.38
2023-08-28T06:52:38.836Z,99809.16
2023-08-28T06:55:07.888Z,99809.00
2023-08-28T06:57:36.289Z,99817.63
2023-08-28T07:00:07.099Z,99821.84
2023-08-28T07:02:35.805Z,99824.38
2023-08-28T07:05:04.308Z,99829.38
2023-08-28T07:07:34.435Z,99836.22
2023-08-28T07:10:02.970Z,99838.66
2023-08-28T07:12:31.285Z,99841.03
2023-08-28T07:15:23.496Z,99851.28
2023-08-28T07:17:52.268Z,99849.50
2023-08-28T07:20:21.708Z,99844.09
2023-08-28T07:22:51.775Z,99847.56
2023-08-28T07:25:23.795Z,99847.56
2023-08-28T07:27:53.165Z,99842.28
2023-08-28T07:30:21.928Z,99847.41
2023-08-28T07:32:50.336Z,99854.56
2023-08-28T07:35:19.028Z,99855.63
2023-08-28T07:37:47.367Z,99865.53
2023-08-28T07:40:17.492Z,99869.00
2023-08-28T07:42:46.076Z,99870.81
2023-08-28T07:45:14.425Z,99860.16
2023-08-28T07:47:44.833Z,99863.72
2023-08-28T07:50:14.286Z,99861.09
2023-08-28T07:52:42.777Z,99868.00
2023-08-28T07:55:11.680Z,99868.63
2023-08-28T07:57:41.416Z,99865.91
2023-08-28T08:00:11.623Z,99864.03
2023-08-28T08:02:43.211Z,99864.66
2023-08-28T08:05:12.905Z,99872.50
2023-08-28T08:07:41.846Z,99870.34
2023-08-28T08:10:11.226Z,99866.59
2023-08-28T08:12:41.277Z,99876.88
2023-08-28T08:15:10.981Z,99865.00
2023-08-28T08:17:39.644Z,99870.94
2023-08-28T08:20:11.925Z,99872.53
2023-08-28T08:22:40.596Z,99874.00
2023-08-28T08:25:10.580Z,99874.44
2023-08-28T08:27:41.074Z,99891.06
2023-08-28T08:30:10.811Z,99884.69
2023-08-28T08:32:39.273Z,99884.38
2023-08-28T08:35:08.438Z,99894.03
2023-08-28T08:37:40.024Z,99889.31
2023-08-28T08:40:17.900Z,99884.56
2023-08-28T08:42:50.560Z,99884.41
2023-08-28T08:45:20.870Z,99881.25
2023-08-28T08:47:57.060Z,99890.47
2023-08-28T08:50:28.492Z,99882.78
2023-08-28T08:53:05.714Z,99879.72
2023-08-28T08:55:42.334Z,99874.97
2023-08-28T08:58:16.002Z,99879.03
2023-08-28T09:00:45.274Z,99877.69
2023-08-28T09:03:16.062Z,99875.38
2023-08-28T09:05:46.292Z,99873.06
2023-08-28T09:08:17.512Z,99881.25
2023-08-28T09:10:47.399Z,99875.88
2023-08-28T09:13:17.335Z,99873.28
2023-08-28T09:15:45.833Z,99874.94
2023-08-28T09:18:14.802Z,99871.75
2023-08-28T09:20:43.275Z,99874.53
2023-08-28T09:23:11.789Z,99869.72
2023-08-28T09:25:41.408Z,99866.13
2023-08-28T09:28:15.337Z,99867.47
2023-08-28T09:30:46.655Z,99868.66
2023-08-28T09:33:15.223Z,99872.69
2023-08-28T09:35:44.944Z,99876.41
2023-08-28T09:38:14.169Z,99881.50
2023-08-28T09:40:43.669Z,99881.28
2023-08-28T09:43:14.498Z,99873.00
2023-08-28T09:45:44.188Z,99860.28
2023-08-28T09:48:17.128Z,99867.47
2023-08-28T09:50:47.017Z,99865.59
2023-08-28T09:53:16.878Z,99868.44
2023-08-28T09:55:49.338Z,99859.13
2023-08-28T09:58:18.357Z,99860.56
2023-08-28T10:00:47.774Z,99867.88
2023-08-28T10:03:17.820Z,99870.03
2023-08-28T10:05:47.890Z,99877.16
2023-08-28T10:08:18.185Z,99870.34
2023-08-28T10:10:49.144Z,99865.63
2023-08-28T10:13:19.357Z,99873.13
2023-08-28T10:15:56.115Z,99873.13
2023-08-28T10:18:32.082Z,99869.22
2023-08-28T10:21:02.503Z,99865.06
2023-08-28T10:23:31.850Z,99859.00
2023-08-28T10:26:01.608Z,99872.56
2023-08-28T10:28:31.401Z,99872.72
2023-08-28T10:31:01.103Z,99875.59
2023-08-28T10:33:33.236Z,99872.06
2023-08-28T10:36:04.306Z,99869.00
2023-08-28T10:38:35.568Z,99875.75
2023-08-28T10:41:09.338Z,99872.50
2023-08-28T10:43:38.404Z,99875.00
2023-08-28T10:46:07.390Z,99865.50
2023-08-28T10:48:40.345Z,99861.53
2023-08-28T10:51:13.496Z,99861.47
2023-08-28T10:53:42.434Z,99855.31
2023-08-28T10:56:13.671Z,99849.22
2023-08-28T10:58:42.244Z,99842.97
2023-08-28T11:01:16.580Z,99849.16
2023-08-28T11:03:59.982Z,99850.47
2023-08-28T11:06:44.193Z,99857.69
2023-08-28T11:09:41.097Z,99855.44
2023-08-28T11:12:28.429Z,99847.19
2023-08-28T11:15:01.268Z,99854.72
2023-08-28T11:17:33.705Z,99847.00
2023-08-28T11:20:13.892Z,99839.59
2023-08-28T11:22:44.284Z,99845.88
2023-08-28T11:25:14.024Z,99854.97
2023-08-28T11:27:48.043Z,99864.66
2023-08-28T11:30:18.267Z,99860.13
2023-08-28T11:32:48.049Z,99855.78
2023-08-28T11:35:19.359Z,99862.16
2023-08-28T11:37:50.820Z,99854.81
2023-08-28T11:40:20.879Z,99854.09
2023-08-28T11:42:50.387Z,99856.38
2023-08-28T11:45:25.963Z,99858.44
2023-08-28T11:47:55.386Z,99864.50
2023-08-28T11:50:26.808Z,99860.81
2023-08-28T11:52:55.797Z,99860.59
2023-08-28T11:55:24.340Z,99861.69
2023-08-28T11:57:53.143Z,99864.91
2023-08-28T12:00:23.290Z,99854.28
2023-08-28T12:02:51.790Z,99857.16
2023-08-28T12:05:21.010Z,99857.47
2023-08-28T12:07:51.799Z,99867.59
2023-08-28T12:10:22.788Z,99861.09
2023-08-28T12:12:56.243Z,99868.53
2023-08-28T12:15:34.277Z,99865.16
2023-08-28T12:18:04.734Z,99870.47
2023-08-28T12:20:34.745Z,99868.34
2023-08-28T12:23:05.247Z,99867.78
2023-08-28T12:25:35.656Z,99870.22
2023-08-28T12:28:09.269Z,99868.91
2023-08-28T12:30:41.208Z,99873.47
2023-08-28T12:33:10.463Z,99868.91
2023-08-28T12:35:40.351Z,99865.63
2023-08-28T12:38:10.210Z,99868.34
2023-08-28T12:40:39.083Z,99867.00
2023-08-28T12:43:11.126Z,99875.28
2023-08-28T12:45:39.686Z,99872.44
2023-08-28T12:48:09.022Z,99876.88
2023-08-28T12:50:37.748Z,99880.28
2023-08-28T12:53:07.128Z,99872.31
2023-08-28T12:55:37.836Z,99881.06
2023-08-28T12:58:06.420Z,99876.31
2023-08-28T13:00:34.740Z,99876.78
2023-08-28T13:03:05.052Z,99879.47
2023-08-28T13:05:34.069Z,99883.16
2023-08-28T13:08:02.915Z,99874.63
2023-08-28T13:10:32.286Z,99878.25
2023-08-28T13:13:03.480Z,99874.25
2023-08-28T13:15:33.172Z,99871.78
2023-08-28T13:18:03.721Z,99867.19
2023-08-28T13:20:32.449Z,99864.03
2023-08-28T13:23:00.891Z,99865.78
2023-08-28T13:25:29.577Z,99857.00
2023-08-28T13:27:58.109Z,99864.19
2023-08-28T13:30:28.115Z,99856.47
2023-08-28T13:32:57.952Z,99853.06
2023-08-28T13:35:26.948Z,99858.81
2023-08-28T13:37:56.302Z,99852.00
2023-08-28T13:40:25.165Z,99852.47
2023-08-28T13:42:53.766Z,99852.25
2023-08-28T13:45:22.355Z,99852.69
2023-08-28T13:47:52.567Z,99854.81
2023-08-28T13:50:20.979Z,99856.72
2023-08-28T13:52:49.642Z,99848.44
2023-08-28T13:55:18.194Z,99837.97
2023-08-28T13:57:47.038Z,99841.09
2023-08-28T14:00:15.922Z,99832.72
2023-08-28T14:02:45.128Z,99840.03
2023-08-28T14:05:15.011Z,99838.22
2023-08-28T14:07:44.316Z,99834.38
2023-08-28T14:10:13.075Z,99844.38
2023-08-28T14:12:41.484Z,99847.97
2023-08-28T14:15:10.235Z,99843.84
2023-08-28T14:17:38.764Z,99846.00
2023-08-28T14:20:10.321Z,99854.47
2023-08-28T14:22:41.225Z,99853.03
2023-08-28T14:25:11.360Z,99852.78
2023-08-28T14:27:53.292Z,99850.06
2023-08-28T14:30:25.493Z,99856.25
2023-08-28T14:32:53.927Z,99849.50
2023-08-28T14:35:22.509Z,99857.69
2023-08-28T14:37:52.326Z,99854.91
2023-08-28T14:40:32.518Z,99857.19
2023-08-28T14:43:09.447Z,99864.78
2023-08-28T14:45:38.859Z,99869.88
2023-08-28T14:48:08.551Z,99867.13
2023-08-28T14:50:37.539Z,99866.09
2023-08-28T14:53:07.865Z,99869.50
2023-08-28T14:55:36.699Z,99863.50
2023-08-28T14:58:06.141Z,99865.63
2023-08-28T15:00:35.869Z,99867.81
2023-08-28T15:03:05.450Z,99873.69
2023-08-28T15:05:35.216Z,99869.31
2023-08-28T15:08:15.849Z,99866.94
2023-08-28T15:10:48.060Z,99869.31
2023-08-28T15:13:17.673Z,99861.09
2023-08-28T15:15:50.118Z,99868.56
2023-08-28T15:18:19.489Z,99856.03
2023-08-28T15:20:48.536Z,99851.50
2023-08-28T15:23:17.769Z,99853.09
2023-08-28T15:25:47.634Z,99863.44
2023-08-28T15:28:16.482Z,99866.63
2023-08-28T15:30:45.054Z,99857.25
2023-08-28T15:33:14.383Z,99857.59
2023-08-28T15:35:42.923Z,99859.03
2023-08-28T15:38:11.594Z,99858.22
2023-08-28T15:40:40.138Z,99852.00
2023-08-28T15:43:10.216Z,99858.16
2023-08-28T15:45:38.936Z,99855.56
2023-08-28T15:48:08.297Z,99851.81
2023-08-28T15:50:36.805Z,99852.84
2023-08-28T15:53:05.828Z,99853.34
2023-08-28T15:55:34.493Z,99865.09
2023-08-28T15:58:03.006Z,99859.97
2023-08-28T16:00:32.997Z,99861.25
2023-08-28T16:03:01.706Z,99866.09
2023-08-28T16:05:30.598Z,99864.94
2023-08-28T16:07:59.088Z,99851.09
2023-08-28T16:10:27.864Z,99856.63
2023-08-28T16:12:56.314Z,99858.16
2023-08-28T16:15:25.034Z,99843.91
2023-08-28T16:17:55.219Z,99849.03
2023-08-28T16:20:27.565Z,99856.59
2023-08-28T16:22:56.399Z,99854.63
2023-08-28T16:25:25.235Z,99852.25
2023-08-28T16:27:53.766Z,99861.72
2023-08-28T16:30:22.499Z,99857.56
2023-08-28T16:32:51.649Z,99854.34
2023-08-28T16:35:21.747Z,99856.44
2023-08-28T16:37:50.164Z,99854.16
2023-08-28T16:40:18.562Z,99854.53
2023-08-28T16:42:46.897Z,99851.13
2023-08-28T16:45:15.229Z,99846.88
2023-08-28T16:47:43.625Z,99849.81
2023-08-28T16:50:12.605Z,99849.06
2023-08-28T16:52:42.508Z,99858.81
2023-08-28T16:55:11.667Z,99855.22
2023-08-28T16:57:40.103Z,99857.19
2023-08-28T17:00:11.780Z,99855.47
2023-08-28T17:02:41.673Z,99855.69
2023-08-28T17:05:10.278Z,99851.31
2023-08-28T17:07:38.659Z,99846.94
2023-08-28T17:10:09.705Z,99846.94
2023-08-28T17:12:38.277Z,99848.56
2023-08-28T17:15:07.831Z,99845.94
2023-08-28T17:17:36.778Z,99837.00
2023-08-28T17:20:06.405Z,99839.78
2023-08-28T17:22:34.760Z,99844.03
2023-08-28T17:25:03.153Z,99842.41
2023-08-28T17:27:32.823Z,99841.75
2023-08-28T17:30:01.512Z,99848.19
2023-08-28T17:32:30.063Z,99848.47
2023-08-28T17:34:58.435Z,99842.59
2023-08-28T17:37:26.878Z,99843.69
2023-08-28T17:39:55.285Z,99842.94
2023-08-28T17:42:24.810Z,99844.09
2023-08-28T17:44:54.674Z,99844.38
2023-08-28T17:47:23.055Z,99843.69
2023-08-28T17:49:57.106Z,99848.41
2023-08-28T17:52:26.782Z,99853.13
2023-08-28T17:54:56.855Z,99856.03
2023-08-28T17:57:25.938Z,99854.59
2023-08-28T17:59:55.885Z,99856.59
2023-08-28T18:02:24.365Z,99854.94
2023-08-28T18:04:52.816Z,99856.94
2023-08-28T18:07:24.627Z,99857.19
2023-08-28T18:09:53.025Z,99853.88
2023-08-28T18:12:21.694Z,99856.78
2023-08-28T18:14:50.236Z,99865.00
2023-08-28T18:17:20.235Z,99859.03
2023-08-28T18:19:48.824Z,99853.91
2023-08-28T18:22:17.081Z,99862.19
2023-08-28T18:24:45.518Z,99858.19
2023-08-28T18:27:13.827Z,99854.97
2023-08-28T18:29:42.319Z,99859.75
2023-08-28T18:32:10.779Z,99860.94
2023-08-28T18:34:40.618Z,99854.97
2023-08-28T18:37:09.045Z,99856.00
2023-08-28T18:39:37.428Z,99852.75
2023-08-28T18:42:09.336Z,99853.69
2023-08-28T18:44:38.566Z,99852.94
2023-08-28T18:47:07.190Z,99844.38
2023-08-28T18:49:35.873Z,99840.19
2023-08-28T18:52:06.487Z,99838.66
2023-08-28T18:54:35.172Z,99845.06
2023-08-28T18:57:05.031Z,99844.28
2023-08-28T18:59:34.264Z,99842.66
2023-08-28T19:02:02.560Z,99836.59
2023-08-28T19:04:31.541Z,99846.41
2023-08-28T19:06:59.949Z,99848.28
2023-08-28T19:09:30.406Z,99838.72
2023-08-28T19:11:58.934Z,99841.47
2023-08-28T19:14:27.354Z,99849.50
2023-08-28T19:16:55.836Z,99848.78
2023-08-28T19:19:24.155Z,99842.78
2023-08-28T19:21:52.540Z,99836.75
2023-08-28T19:24:20.846Z,99849.88
2023-08-28T19:26:50.794Z,99851.53
2023-08-28T19:29:19.186Z,99855.53
2023-08-28T19:31:47.843Z,99851.88
2023-08-28T19:34:16.825Z,99856.81
2023-08-28T19:36:45.247Z,99849.66
2023-08-28T19:39:14.954Z,99853.94
2023-08-28T19:41:43.337Z,99851.91
2023-08-28T19:44:13.062Z,99849.81
2023-08-28T19:46:43.640Z,99848.81
2023-08-28T19:49:12.946Z,99855.72
2023-08-28T19:51:41.612Z,99855.47
2023-08-28T19:54:12.156Z,99854.44
2023-08-28T19:56:40.738Z,99863.25
2023-08-28T19:59:09.124Z,99858.78
2023-08-28T20:01:39.111Z,99856.09
2023-08-28T20:04:07.954Z,99864.88
2023-08-28T20:06:36.539Z,99868.44
2023-08-28T20:09:07.348Z,99870.25
2023-08-28T20:11:35.945Z,99879.97
2023-08-28T20:14:04.280Z,99874.78
2023-08-28T20:16:32.992Z,99880.16
2023-08-28T20:19:02.733Z,99871.38
2023-08-28T20:21:31.182Z,99875.81
2023-08-28T20:23:59.521Z,99875.81
2023-08-28T20:26:27.931Z,99881.09
2023-08-28T20:28:56.443Z,99874.88
2023-08-28T20:31:25.177Z,99881.88
2023-08-28T20:33:53.672Z,99882.81
2023-08-28T20:36:23.411Z,99884.50
2023-08-28T20:38:51.841Z,99878.47
2023-08-28T20:41:20.181Z,99875.81
2023-08-28T20:43:48.564Z,99881.09
2023-08-28T20:46:17.000Z,99879.41
2023-08-28T20:48:46.472Z,99874.09
2023-08-28T20:51:14.886Z,99882.03
2023-08-28T20:53:45.040Z,99882.19
2023-08-28T20:56:13.630Z,99880.59
2023-08-28T20:58:42.160Z,99871.00
2023-08-28T21:01:10.667Z,99873.75
2023-08-28T21:03:39.030Z,99872.88
2023-08-28T21:06:07.483Z,99874.59
2023-08-28T21:08:35.788Z,99871.94
2023-08-28T21:11:05.796Z,99869.31
2023-08-28T21:13:34.154Z,99868.44
2023-08-28T21:16:02.889Z,99865.91
2023-08-28T21:18:31.391Z,99865.03
2023-08-28T21:21:02.750Z,99868.63
2023-08-28T21:23:31.204Z,99861.59
2023-08-28T21:26:00.664Z,99867.94
2023-08-28T21:28:31.873Z,99862.72
2023-08-28T21:31:01.990Z,99863.72
2023-08-28T21:33:31.445Z,99862.97
2023-08-28T21:36:00.718Z,99862.97
2023-08-28T21:38:29.064Z,99867.41
2023-08-28T21:40:59.262Z,99858.72
2023-08-28T21:43:28.716Z,99857.84
2023-08-28T21:46:01.105Z,99862.28
2023-08-28T21:48:32.235Z,99865.88
2023-08-28T21:51:19.295Z,99864.16
2023-08-28T21:54:06.697Z,99859.88
2023-08-28T21:56:53.475Z,99854.59
2023-08-28T21:59:40.333Z,99851.19
2023-08-28T22:02:29.711Z,99850.25
2023-08-28T22:05:16.906Z,99852.91
2023-08-28T22:07:45.404Z,99850.25
2023-08-28T22:10:34.098Z,99852.03
2023-08-28T22:13:31.995Z,99852.91
2023-08-28T22:16:00.563Z,99841.56
2023-08-28T22:18:30.607Z,99838.03
2023-08-28T22:20:59.420Z,99840.75
2023-08-28T22:23:28.153Z,99835.38
2023-08-28T22:25:57.143Z,99838.97
2023-08-28T22:28:25.637Z,99841.63
2023-08-28T22:30:54.804Z,99837.34
2023-08-28T22:33:23.175Z,99840.09
2023-08-28T22:35:53.097Z,99830.34
2023-08-28T22:38:21.586Z,99833.94
2023-08-28T22:40:49.997Z,99833.16
2023-08-28T22:43:18.522Z,99828.81
2023-08-28T22:45:46.955Z,99823.50
2023-08-28T22:48:15.334Z,99816.56
2023-08-28T22:50:43.895Z,99828.94
2023-08-28T22:53:13.608Z,99819.31
2023-08-28T22:55:42.015Z,99814.94
2023-08-28T22:58:10.314Z,99821.16
2023-08-28T23:00:38.836Z,99813.41
2023-08-28T23:03:07.517Z,99807.28
2023-08-28T23:05:36.853Z,99814.34
2023-08-28T23:08:05.985Z,99815.25
2023-08-28T23:10:36.468Z,99818.84
2023-08-28T23:13:05.092Z,99820.63
2023-08-28T23:15:35.810Z,99826.88
2023-08-28T23:18:04.719Z,99824.22
2023-08-28T23:20:35.361Z,99812.78
2023-08-28T23:23:03.775Z,99811.19
2023-08-28T23:25:32.275Z,99811.19
2023-08-28T23:28:06.941Z,99805.03
2023-08-28T23:30:35.599Z,99802.41
2023-08-28T23:33:05.211Z,99799.75
2023-08-28T23:35:33.796Z,99796.41
2023-08-28T23:38:02.267Z,99793.84
2023-08-28T23:40:32.102Z,99797.44
2023-08-28T23:43:01.841Z,99798.34
2023-08-28T23:45:30.311Z,99796.66
2023-08-28T23:47:58.786Z,99793.06
2023-08-28T23:50:27.553Z,99794.09
2023-08-28T23:52:55.883Z,99792.28
2023-08-28T23:55:24.275Z,99795.88
2023-08-28T23:57:53.592Z,99779.25
